createdAt,value
2022-10-28T00:00:54.124Z,15.20
2022-10-28T00:03:23.429Z,15.20
2022-10-28T00:05:51.242Z,15.20
2022-10-28T00:08:19.079Z,15.20
2022-10-28T00:10:46.941Z,15.20
2022-10-28T00:13:14.739Z,15.20
2022-10-28T00:15:42.576Z,15.10
2022-10-28T00:18:11.246Z,15.10
2022-10-28T00:20:40.483Z,15.10
2022-10-28T00:23:08.315Z,15.10
2022-10-28T00:25:36.157Z,15.10
2022-10-28T00:28:04.007Z,15.20
2022-10-28T00:30:31.948Z,15.10
2022-10-28T00:32:59.765Z,15.10
2022-10-28T00:35:27.591Z,15.10
2022-10-28T00:37:56.727Z,15.00
2022-10-28T00:40:24.541Z,15.00
2022-10-28T00:42:52.753Z,15.10
2022-10-28T00:45:20.860Z,15.10
2022-10-28T00:47:55.229Z,15.00
2022-10-28T00:50:40.629Z,15.00
2022-10-28T00:53:15.260Z,15.00
2022-10-28T00:55:44.920Z,14.90
2022-10-28T00:58:13.249Z,14.90
2022-10-28T01:00:41.365Z,14.90
2022-10-28T01:03:09.674Z,14.80
2022-10-28T01:05:40.696Z,14.80
2022-10-28T01:08:10.638Z,14.80
2022-10-28T01:10:53.395Z,14.80
2022-10-28T01:13:32.466Z,14.90
2022-10-28T01:16:06.072Z,14.80
2022-10-28T01:18:44.094Z,14.70
2022-10-28T01:21:37.231Z,14.70
2022-10-28T01:24:20.518Z,14.70
2022-10-28T01:27:18.121Z,14.70
2022-10-28T01:30:09.597Z,14.60
2022-10-28T01:32:52.169Z,14.60
2022-10-28T01:35:25.322Z,14.60
2022-10-28T01:38:09.439Z,14.60
2022-10-28T01:40:45.072Z,14.60
2022-10-28T01:43:16.827Z,14.60
2022-10-28T01:45:52.349Z,14.50
2022-10-28T01:48:27.168Z,14.50
2022-10-28T01:51:00.850Z,14.50
2022-10-28T01:53:32.727Z,14.50
2022-10-28T01:56:09.349Z,14.50
2022-10-28T01:58:39.402Z,14.50
2022-10-28T02:01:10.260Z,14.40
2022-10-28T02:03:39.950Z,14.40
2022-10-28T02:06:16.109Z,14.40
2022-10-28T02:09:08.890Z,14.40
2022-10-28T02:11:52.651Z,14.40
2022-10-28T02:14:39.478Z,14.40
2022-10-28T02:17:16.573Z,14.50
2022-10-28T02:19:52.474Z,14.40
2022-10-28T02:22:24.469Z,14.30
2022-10-28T02:25:01.391Z,14.30
2022-10-28T02:27:35.183Z,14.30
2022-10-28T02:30:07.622Z,14.40
2022-10-28T02:32:39.251Z,14.40
2022-10-28T02:35:14.022Z,14.30
2022-10-28T02:37:43.578Z,14.30
2022-10-28T02:40:16.215Z,14.30
2022-10-28T02:42:49.780Z,14.30
2022-10-28T02:45:20.143Z,14.30
2022-10-28T02:47:52.810Z,14.30
2022-10-28T02:50:26.599Z,14.30
2022-10-28T02:52:57.865Z,14.20
2022-10-28T02:55:30.727Z,14.20
2022-10-28T02:57:58.977Z,14.20
2022-10-28T03:00:26.852Z,14.20
2022-10-28T03:02:54.718Z,14.30
2022-10-28T03:05:23.887Z,14.20
2022-10-28T03:07:51.987Z,14.20
2022-10-28T03:10:20.110Z,14.30
2022-10-28T03:12:47.920Z,14.20
2022-10-28T03:15:15.894Z,14.20
2022-10-28T03:17:45.550Z,14.10
2022-10-28T03:20:13.497Z,14.20
2022-10-28T03:22:43.882Z,14.20
2022-10-28T03:25:11.803Z,14.10
2022-10-28T03:27:41.435Z,14.10
2022-10-28T03:30:10.101Z,14.10
2022-10-28T03:32:38.033Z,14.10
2022-10-28T03:35:07.105Z,14.10
2022-10-28T03:37:34.990Z,14.10
2022-10-28T03:40:07.774Z,14.10
2022-10-28T03:42:38.868Z,14.00
2022-10-28T03:45:09.616Z,14.10
2022-10-28T03:47:37.967Z,14.10
2022-10-28T03:50:06.242Z,14.00
2022-10-28T03:52:34.072Z,14.00
2022-10-28T03:55:01.949Z,14.00
2022-10-28T03:57:33.595Z,14.00
2022-10-28T04:00:01.393Z,14.00
2022-10-28T04:02:29.261Z,14.00
2022-10-28T04:04:57.255Z,14.00
2022-10-28T04:07:25.181Z,14.00
2022-10-28T04:09:52.971Z,14.00
2022-10-28T04:12:20.815Z,14.00
2022-10-28T04:14:50.126Z,14.00
2022-10-28T04:17:18.100Z,14.00
2022-10-28T04:19:45.917Z,14.00
2022-10-28T04:22:13.775Z,14.00
2022-10-28T04:24:41.578Z,14.00
2022-10-28T04:27:09.490Z,14.00
2022-10-28T04:29:37.389Z,14.00
2022-10-28T04:32:06.884Z,13.90
2022-10-28T04:34:34.697Z,14.00
2022-10-28T04:37:02.586Z,14.00
2022-10-28T04:39:30.411Z,13.90
2022-10-28T04:41:58.274Z,13.90
2022-10-28T04:44:26.082Z,14.00
2022-10-28T04:46:53.894Z,13.90
2022-10-28T04:49:23.083Z,13.90
2022-10-28T04:51:50.933Z,14.00
2022-10-28T04:54:18.803Z,14.00
2022-10-28T04:56:46.626Z,13.90
2022-10-28T04:59:14.607Z,14.10
2022-10-28T05:01:42.461Z,13.90
2022-10-28T05:04:10.420Z,13.90
2022-10-28T05:06:39.643Z,13.90
2022-10-28T05:09:07.461Z,13.90
2022-10-28T05:11:35.289Z,13.90
2022-10-28T05:14:03.121Z,13.90
2022-10-28T05:16:30.989Z,14.00
2022-10-28T05:18:59.343Z,13.90
2022-10-28T05:21:27.161Z,13.90
2022-10-28T05:23:56.326Z,13.90
2022-10-28T05:26:24.135Z,13.90
2022-10-28T05:28:52.295Z,13.90
2022-10-28T05:31:20.354Z,13.90
2022-10-28T05:33:48.196Z,13.90
2022-10-28T05:36:16.082Z,13.90
2022-10-28T05:38:45.376Z,13.90
2022-10-28T05:41:14.600Z,13.90
2022-10-28T05:43:42.440Z,13.90
2022-10-28T05:46:10.626Z,13.90
2022-10-28T05:48:38.469Z,13.80
2022-10-28T05:51:06.541Z,13.90
2022-10-28T05:53:34.355Z,13.80
2022-10-28T05:56:02.199Z,13.90
2022-10-28T05:58:31.388Z,13.90
2022-10-28T06:00:59.285Z,13.90
2022-10-28T06:03:30.214Z,13.90
2022-10-28T06:05:59.565Z,13.80
2022-10-28T06:08:27.607Z,13.90
2022-10-28T06:10:54.407Z,13.90
2022-10-28T06:13:22.314Z,13.90
2022-10-28T06:15:55.577Z,13.80
2022-10-28T06:18:23.950Z,13.90
2022-10-28T06:20:53.467Z,13.80
2022-10-28T06:23:21.822Z,13.90
2022-10-28T06:25:49.961Z,13.80
2022-10-28T06:28:17.904Z,13.80
2022-10-28T06:30:45.690Z,13.80
2022-10-28T06:33:15.061Z,13.80
2022-10-28T06:35:42.995Z,13.80
2022-10-28T06:38:10.883Z,13.80
2022-10-28T06:40:38.733Z,13.80
2022-10-28T06:43:07.374Z,13.80
2022-10-28T06:45:35.550Z,13.80
2022-10-28T06:48:06.674Z,13.90
2022-10-28T06:50:37.220Z,13.80
2022-10-28T06:53:05.456Z,13.80
2022-10-28T06:55:33.311Z,13.80
2022-10-28T06:58:02.128Z,13.80
2022-10-28T07:02:59.712Z,13.80
2022-10-28T07:05:28.832Z,13.80
2022-10-28T07:07:58.025Z,13.80
2022-10-28T07:10:25.845Z,13.80
2022-10-28T07:12:54.028Z,13.70
2022-10-28T07:15:22.312Z,13.80
2022-10-28T07:17:53.755Z,13.80
2022-10-28T07:20:21.790Z,13.80
2022-10-28T07:22:49.644Z,13.80
2022-10-28T07:25:18.924Z,13.70
2022-10-28T07:27:46.764Z,13.80
2022-10-28T07:30:14.942Z,13.80
2022-10-28T07:32:42.815Z,13.80
2022-10-28T07:35:10.659Z,13.80
2022-10-28T07:37:39.554Z,13.90
2022-10-28T07:40:08.402Z,13.80
2022-10-28T07:42:37.610Z,13.80
2022-10-28T07:45:06.752Z,13.90
2022-10-28T07:47:34.603Z,13.90
2022-10-28T07:50:02.499Z,13.90
2022-10-28T07:52:30.305Z,14.00
2022-10-28T07:54:58.173Z,14.00
2022-10-28T07:57:26.105Z,14.00
2022-10-28T07:59:55.253Z,14.00
2022-10-28T08:02:25.241Z,14.00
2022-10-28T08:04:53.659Z,14.10
2022-10-28T08:07:21.687Z,14.10
2022-10-28T08:09:49.525Z,14.10
2022-10-28T08:12:17.541Z,14.10
2022-10-28T08:14:45.438Z,14.20
2022-10-28T08:17:14.638Z,14.20
2022-10-28T08:19:42.537Z,14.20
2022-10-28T08:22:11.424Z,14.20
2022-10-28T08:24:39.304Z,14.20
2022-10-28T08:27:07.133Z,14.30
2022-10-28T08:29:35.001Z,14.30
2022-10-28T08:32:02.842Z,14.30
2022-10-28T08:34:31.986Z,14.30
2022-10-28T08:36:59.872Z,14.40
2022-10-28T08:39:27.823Z,14.40
2022-10-28T08:42:08.955Z,14.40
2022-10-28T08:45:16.117Z,14.40
2022-10-28T08:47:54.300Z,14.50
2022-10-28T08:50:27.657Z,14.50
2022-10-28T08:52:58.010Z,14.50
2022-10-28T08:55:29.312Z,14.60
2022-10-28T08:58:00.352Z,14.70
2022-10-28T09:00:31.083Z,14.70
2022-10-28T09:03:17.359Z,14.70
2022-10-28T09:05:49.955Z,14.70
2022-10-28T09:08:23.892Z,14.70
2022-10-28T09:11:05.029Z,14.80
2022-10-28T09:13:45.932Z,14.80
2022-10-28T09:16:22.285Z,14.90
2022-10-28T09:18:53.485Z,14.90
2022-10-28T09:21:31.173Z,15.00
2022-10-28T09:24:00.812Z,15.00
2022-10-28T09:26:38.678Z,15.00
2022-10-28T09:29:21.444Z,15.10
2022-10-28T09:31:53.449Z,15.10
2022-10-28T09:34:32.103Z,15.10
2022-10-28T09:37:05.577Z,15.20
2022-10-28T09:39:41.501Z,15.20
2022-10-28T09:42:18.066Z,15.20
2022-10-28T09:44:50.655Z,15.40
2022-10-28T09:47:23.138Z,15.40
2022-10-28T09:49:55.082Z,15.40
2022-10-28T09:52:30.041Z,15.50
2022-10-28T09:55:00.342Z,15.50
2022-10-28T09:57:33.020Z,15.60
2022-10-28T10:00:01.552Z,15.60
2022-10-28T10:02:31.644Z,15.70
2022-10-28T10:05:01.361Z,15.80
2022-10-28T10:07:38.439Z,15.80
2022-10-28T10:10:12.732Z,15.90
2022-10-28T10:12:41.875Z,15.90
2022-10-28T10:15:16.007Z,16.10
2022-10-28T10:17:46.951Z,16.00
2022-10-28T10:20:16.383Z,16.00
2022-10-28T10:22:48.056Z,16.10
2022-10-28T10:25:25.727Z,16.10
2022-10-28T10:27:57.404Z,16.20
2022-10-28T10:30:30.299Z,16.30
2022-10-28T10:33:00.640Z,16.40
2022-10-28T10:35:30.852Z,16.40
2022-10-28T10:38:02.005Z,16.60
2022-10-28T10:40:32.202Z,16.50
2022-10-28T10:43:24.663Z,16.50
2022-10-28T10:46:01.634Z,16.60
2022-10-28T10:48:29.795Z,16.70
2022-10-28T10:50:57.789Z,16.80
2022-10-28T10:53:28.861Z,16.80
2022-10-28T10:56:00.572Z,16.80
2022-10-28T10:58:32.025Z,17.00
2022-10-28T11:01:02.312Z,16.90
2022-10-28T11:03:34.682Z,17.00
2022-10-28T11:06:23.603Z,17.00
2022-10-28T11:08:57.132Z,17.20
2022-10-28T11:11:33.689Z,17.20
2022-10-28T11:14:08.394Z,17.20
2022-10-28T11:16:48.006Z,17.30
2022-10-28T11:19:21.895Z,17.40
2022-10-28T11:22:02.608Z,17.40
2022-10-28T11:24:51.332Z,17.40
2022-10-28T11:27:28.832Z,17.50
2022-10-28T11:29:59.624Z,17.60
2022-10-28T11:32:54.512Z,17.60
2022-10-28T11:35:43.733Z,17.70
2022-10-28T11:38:25.017Z,17.70
2022-10-28T11:41:08.217Z,17.80
2022-10-28T11:43:48.683Z,17.80
2022-10-28T11:46:31.536Z,17.80
2022-10-28T11:49:24.410Z,17.90
2022-10-28T11:52:01.383Z,18.00
2022-10-28T11:54:45.197Z,18.00
2022-10-28T11:57:17.319Z,18.00
2022-10-28T12:00:04.233Z,18.10
2022-10-28T12:02:49.449Z,18.10
2022-10-28T12:05:25.210Z,18.20
2022-10-28T12:08:21.268Z,18.30
2022-10-28T12:11:01.497Z,18.30
2022-10-28T12:13:39.078Z,18.30
2022-10-28T12:16:14.185Z,18.40
2022-10-28T12:18:49.452Z,18.40
2022-10-28T12:21:26.150Z,18.50
2022-10-28T12:23:54.838Z,18.60
2022-10-28T12:26:30.925Z,18.50
2022-10-28T12:29:04.281Z,18.50
2022-10-28T12:31:38.854Z,18.60
2022-10-28T12:34:12.596Z,18.60
2022-10-28T12:36:45.898Z,18.60
2022-10-28T12:39:18.345Z,18.60
2022-10-28T12:41:56.435Z,18.70
2022-10-28T12:44:28.108Z,18.70
2022-10-28T12:47:12.989Z,18.80
2022-10-28T12:49:49.463Z,18.80
2022-10-28T12:52:25.061Z,18.90
2022-10-28T12:54:59.354Z,18.90
2022-10-28T12:57:28.217Z,18.90
2022-10-28T13:00:02.363Z,18.90
2022-10-28T13:02:33.174Z,19.00
2022-10-28T13:05:01.237Z,19.00
2022-10-28T13:07:44.132Z,19.00
2022-10-28T13:10:20.692Z,19.10
2022-10-28T13:13:26.618Z,19.10
2022-10-28T13:16:22.163Z,19.10
2022-10-28T13:19:03.469Z,19.20
2022-10-28T13:21:51.060Z,19.20
2022-10-28T13:24:25.125Z,19.20
2022-10-28T13:26:53.457Z,19.20
2022-10-28T13:29:24.604Z,19.20
2022-10-28T13:31:54.726Z,19.30
2022-10-28T13:34:32.498Z,19.30
2022-10-28T13:37:03.243Z,19.40
2022-10-28T13:39:43.613Z,19.30
2022-10-28T13:42:54.269Z,19.40
2022-10-28T13:45:48.129Z,19.40
2022-10-28T13:48:49.221Z,19.40
2022-10-28T13:51:34.013Z,19.50
2022-10-28T13:54:01.960Z,19.50
2022-10-28T13:56:48.244Z,19.50
2022-10-28T13:59:24.415Z,19.50
2022-10-28T14:02:07.326Z,19.50
2022-10-28T14:04:54.377Z,19.60
2022-10-28T14:07:52.584Z,19.60
2022-10-28T14:10:24.467Z,19.70
2022-10-28T14:12:56.402Z,19.70
2022-10-28T14:15:27.342Z,19.70
2022-10-28T14:18:09.816Z,19.80
2022-10-28T14:20:58.990Z,19.70
2022-10-28T14:24:15.978Z,19.70
2022-10-28T14:27:20.346Z,19.70
2022-10-28T14:29:50.031Z,19.70
2022-10-28T14:32:43.685Z,19.70
2022-10-28T14:35:24.064Z,19.80
2022-10-28T14:38:30.377Z,19.80
2022-10-28T14:41:07.415Z,19.80
2022-10-28T14:43:48.446Z,19.80
2022-10-28T14:46:30.605Z,19.70
2022-10-28T14:48:59.641Z,19.80
2022-10-28T14:51:30.450Z,19.70
2022-10-28T14:54:01.655Z,19.70
2022-10-28T14:56:31.059Z,19.70
2022-10-28T14:59:01.689Z,19.70
2022-10-28T15:01:47.778Z,19.70
2022-10-28T15:04:21.727Z,19.80
2022-10-28T15:06:52.465Z,19.70
2022-10-28T15:09:25.158Z,19.80
2022-10-28T15:11:57.116Z,19.80
2022-10-28T15:14:31.194Z,19.80
2022-10-28T15:17:00.456Z,19.80
2022-10-28T15:19:30.173Z,19.80
2022-10-28T15:22:03.366Z,19.80
2022-10-28T15:24:32.662Z,19.80
2022-10-28T15:27:00.828Z,19.90
2022-10-28T15:29:28.840Z,19.80
2022-10-28T15:32:08.322Z,19.80
2022-10-28T15:34:36.366Z,19.80
2022-10-28T15:37:05.335Z,19.70
2022-10-28T15:39:35.193Z,19.70
2022-10-28T15:42:03.339Z,19.70
2022-10-28T15:44:37.139Z,19.70
2022-10-28T15:47:18.408Z,19.60
2022-10-28T15:52:48.087Z,19.50
2022-10-28T15:55:41.121Z,19.50
2022-10-28T15:58:36.928Z,19.50
2022-10-28T16:01:09.286Z,19.40
2022-10-28T16:03:45.694Z,19.40
2022-10-28T16:06:23.105Z,19.30
2022-10-28T16:09:04.251Z,19.30
2022-10-28T16:11:39.191Z,19.30
2022-10-28T16:14:27.462Z,19.30
2022-10-28T16:16:57.503Z,19.20
2022-10-28T16:19:29.680Z,19.20
2022-10-28T16:21:57.551Z,19.20
2022-10-28T16:24:25.412Z,19.10
2022-10-28T16:26:54.616Z,19.10
2022-10-28T16:29:22.420Z,19.10
2022-10-28T16:31:52.495Z,19.00
2022-10-28T16:34:20.320Z,19.00
2022-10-28T16:36:48.148Z,19.00
2022-10-28T16:39:16.150Z,18.90
2022-10-28T16:41:43.946Z,18.90
2022-10-28T16:44:18.897Z,18.90
2022-10-28T16:46:46.793Z,18.90
2022-10-28T16:49:14.969Z,18.80
2022-10-28T16:51:44.627Z,18.80
2022-10-28T16:54:12.488Z,18.70
2022-10-28T16:56:40.275Z,18.60
2022-10-28T16:59:08.154Z,18.60
2022-10-28T17:01:37.523Z,18.60
2022-10-28T17:04:05.834Z,18.60
2022-10-28T17:06:33.692Z,18.50
2022-10-28T17:09:03.319Z,18.40
2022-10-28T17:14:05.000Z,18.30
2022-10-28T17:16:32.841Z,18.30
2022-10-28T17:19:02.017Z,18.30
2022-10-28T17:21:29.851Z,18.30
2022-10-28T17:23:57.666Z,18.20
2022-10-28T17:26:25.904Z,18.20
2022-10-28T17:28:53.890Z,18.10
2022-10-28T17:31:24.894Z,18.10
2022-10-28T17:33:56.754Z,18.00
2022-10-28T17:36:26.004Z,18.00
2022-10-28T17:38:53.821Z,18.00
2022-10-28T17:41:21.662Z,17.90
2022-10-28T17:43:52.861Z,17.80
2022-10-28T17:46:21.141Z,17.80
2022-10-28T17:48:49.397Z,17.80
2022-10-28T17:51:20.088Z,17.70
2022-10-28T17:53:53.642Z,17.70
2022-10-28T17:56:21.826Z,17.60
2022-10-28T17:58:52.623Z,17.70
2022-10-28T18:01:20.888Z,17.60
2022-10-28T18:03:50.256Z,17.50
2022-10-28T18:06:18.551Z,17.50
2022-10-28T18:08:46.675Z,17.50
2022-10-28T18:11:17.557Z,17.50
2022-10-28T18:13:48.833Z,17.40
2022-10-28T18:16:18.709Z,17.40
2022-10-28T18:18:46.701Z,17.40
2022-10-28T18:21:15.674Z,17.30
2022-10-28T18:23:43.508Z,17.30
2022-10-28T18:26:12.655Z,17.20
2022-10-28T18:28:43.421Z,17.20
2022-10-28T18:31:12.826Z,17.20
2022-10-28T18:33:41.171Z,17.10
2022-10-28T18:36:12.067Z,17.10
2022-10-28T18:38:40.755Z,17.00
2022-10-28T18:41:11.789Z,17.00
2022-10-28T18:43:41.142Z,17.00
2022-10-28T18:46:09.429Z,17.00
2022-10-28T18:48:37.382Z,16.90
2022-10-28T18:51:10.108Z,16.90
2022-10-28T18:53:38.885Z,16.90
2022-10-28T18:56:08.142Z,16.80
2022-10-28T18:58:36.345Z,16.80
2022-10-28T19:01:07.301Z,16.80
2022-10-28T19:03:35.372Z,16.70
2022-10-28T19:06:05.217Z,16.70
2022-10-28T19:08:33.608Z,16.70
2022-10-28T19:11:02.652Z,16.60
2022-10-28T19:13:33.017Z,16.60
2022-10-28T19:16:00.924Z,16.50
2022-10-28T19:18:30.215Z,16.50
2022-10-28T19:21:04.152Z,16.50
2022-10-28T19:23:32.456Z,16.50
2022-10-28T19:26:00.718Z,16.40
2022-10-28T19:28:29.108Z,16.40
2022-10-28T19:31:05.188Z,16.40
2022-10-28T19:33:34.795Z,16.30
2022-10-28T19:36:04.848Z,16.30
2022-10-28T19:38:34.156Z,16.20
2022-10-28T19:41:06.996Z,16.20
2022-10-28T19:43:35.583Z,16.20
2022-10-28T19:46:08.109Z,16.10
2022-10-28T19:48:37.505Z,16.10
2022-10-28T19:51:05.373Z,16.10
2022-10-28T19:53:33.426Z,16.00
2022-10-28T19:56:02.605Z,16.00
2022-10-28T19:58:32.023Z,16.00
2022-10-28T20:01:01.836Z,15.90
2022-10-28T20:03:34.295Z,15.90
2022-10-28T20:06:06.988Z,15.90
2022-10-28T20:08:36.274Z,15.80
2022-10-28T20:11:06.534Z,15.80
2022-10-28T20:13:35.441Z,15.80
2022-10-28T20:16:05.854Z,15.80
2022-10-28T20:18:34.624Z,15.70
2022-10-28T20:21:08.280Z,15.70
2022-10-28T20:23:36.236Z,15.60
2022-10-28T20:26:04.616Z,15.60
2022-10-28T20:28:32.776Z,15.60
2022-10-28T20:31:02.377Z,15.60
2022-10-28T20:33:31.457Z,15.60
2022-10-28T20:36:00.003Z,15.50
2022-10-28T20:38:29.961Z,15.50
2022-10-28T20:40:59.425Z,15.50
2022-10-28T20:43:29.741Z,15.50
2022-10-28T20:45:59.668Z,15.40
2022-10-28T20:48:28.295Z,15.40
2022-10-28T20:50:57.936Z,15.40
2022-10-28T20:53:26.981Z,15.40
2022-10-28T20:55:57.226Z,15.40
2022-10-28T20:58:28.260Z,15.30
2022-10-28T21:01:02.533Z,15.30
2022-10-28T21:03:30.361Z,15.30
2022-10-28T21:05:58.275Z,15.30
2022-10-28T21:08:26.215Z,15.20
2022-10-28T21:10:54.069Z,15.20
2022-10-28T21:13:23.298Z,15.20
2022-10-28T21:15:56.401Z,15.20
2022-10-28T21:18:26.068Z,15.10
2022-10-28T21:20:57.056Z,15.10
2022-10-28T21:23:25.311Z,15.10
2022-10-28T21:25:54.140Z,15.10
2022-10-28T21:28:24.028Z,15.10
2022-10-28T21:30:51.844Z,15.10
2022-10-28T21:33:19.655Z,15.00
2022-10-28T21:35:56.633Z,15.00
2022-10-28T21:38:24.566Z,15.00
2022-10-28T21:40:59.833Z,15.00
2022-10-28T21:43:30.768Z,14.90
2022-10-28T21:45:59.091Z,14.90
2022-10-28T21:48:44.859Z,14.90
2022-10-28T21:51:15.255Z,14.90
2022-10-28T21:53:44.675Z,14.90
2022-10-28T21:56:16.990Z,14.90
2022-10-28T21:58:48.724Z,14.90
2022-10-28T22:01:19.409Z,14.90
2022-10-28T22:03:47.435Z,14.90
2022-10-28T22:06:15.632Z,14.90
2022-10-28T22:08:43.617Z,14.80
2022-10-28T22:11:14.158Z,14.80
2022-10-28T22:13:42.014Z,14.80
2022-10-28T22:16:14.063Z,14.80
2022-10-28T22:18:41.929Z,14.80
2022-10-28T22:21:12.206Z,14.80
2022-10-28T22:23:40.565Z,14.80
2022-10-28T22:26:10.530Z,14.70
2022-10-28T22:28:39.100Z,14.70
2022-10-28T22:31:09.720Z,14.70
2022-10-28T22:33:39.745Z,14.70
2022-10-28T22:36:09.275Z,14.70
2022-10-28T22:38:37.246Z,14.70
2022-10-28T22:41:07.201Z,14.70
2022-10-28T22:43:35.248Z,14.70
2022-10-28T22:46:03.526Z,14.70
2022-10-28T22:48:31.712Z,14.70
2022-10-28T22:51:01.511Z,14.70
2022-10-28T22:53:29.676Z,14.70
2022-10-28T22:55:58.389Z,14.60
2022-10-28T22:58:29.267Z,14.60
2022-10-28T23:01:06.460Z,14.60
2022-10-28T23:03:38.919Z,14.60
2022-10-28T23:06:08.980Z,14.60
2022-10-28T23:08:38.554Z,14.60
2022-10-28T23:11:07.181Z,14.60
2022-10-28T23:13:35.181Z,14.60
2022-10-28T23:16:06.757Z,14.50
2022-10-28T23:18:35.160Z,14.50
2022-10-28T23:21:10.513Z,14.50
2022-10-28T23:23:38.529Z,14.50
2022-10-28T23:26:06.744Z,14.50
2022-10-28T23:28:34.540Z,14.50
2022-10-28T23:31:02.833Z,14.40
2022-10-28T23:33:31.450Z,14.40
2022-10-28T23:36:00.439Z,14.40
2022-10-28T23:38:29.620Z,14.40
2022-10-28T23:41:02.140Z,14.40
2022-10-28T23:43:30.736Z,14.30
2022-10-28T23:45:58.977Z,14.30
2022-10-28T23:48:28.342Z,14.30
2022-10-28T23:50:56.508Z,14.30
2022-10-28T23:53:24.556Z,14.30
2022-10-28T23:55:54.183Z,14.30
2022-10-28T23:58:23.180Z,14.20
